Time;durP1;ratioP1;P1;durP2;ratioP2;P2;SDS_P1;SDS_P2;PMS_P1;PMS_P2;Temp;Humidity;BMP_temperature;BMP_pressure;BME280_temperature;BME280_humidity;BME280_pressure;Samples;Min_cycle;Max_cycle;Signal;HPM_P1;HPM_P2
2022/11/16 00:01:31;;;;;;;107.80;34.13;;;7.60;99.90;;;;;;5059829;28;20043;-78
2022/11/16 00:04:00;;;;;;;99.32;30.25;;;7.60;99.90;;;;;;5082937;28;20036;-78
2022/11/16 00:06:28;;;;;;;104.63;29.10;;;7.60;99.90;;;;;;5082184;28;20044;-78
2022/11/16 00:11:43;;;;;;;111.88;30.75;;;7.60;99.90;;;;;;5072955;28;20495;-78
2022/11/16 00:14:11;;;;;;;96.47;27.55;;;7.60;99.90;;;;;;5080686;28;20067;-78
2022/11/16 00:16:38;;;;;;;109.68;32.45;;;7.60;99.90;;;;;;5080579;28;20040;-78
2022/11/16 00:19:06;;;;;;;100.97;31.55;;;7.60;99.90;;;;;;5073460;28;20047;-78
2022/11/16 00:21:33;;;;;;;114.97;31.67;;;7.60;99.90;;;;;;5079542;28;20041;-78
2022/11/16 00:24:01;;;;;;;119.05;32.17;;;7.70;99.90;;;;;;5081521;28;20040;-79
2022/11/16 00:26:29;;;;;;;117.00;31.02;;;7.60;99.90;;;;;;5078223;28;20036;-79
2022/11/16 00:28:56;;;;;;;108.70;32.10;;;7.70;99.90;;;;;;5060326;28;20526;-79
2022/11/16 00:31:24;;;;;;;110.32;32.80;;;7.70;99.90;;;;;;5068292;28;20660;-79
2022/11/16 00:33:51;;;;;;;114.22;31.88;;;7.60;99.90;;;;;;5079119;28;20581;-79
2022/11/16 00:36:18;;;;;;;121.13;30.50;;;7.70;99.90;;;;;;5066495;28;20533;-79
2022/11/16 00:38:46;;;;;;;120.78;33.28;;;7.60;99.90;;;;;;5065282;28;20052;-79
2022/11/16 00:41:13;;;;;;;131.40;34.38;;;7.60;99.90;;;;;;5095414;28;20048;-79
2022/11/16 00:43:40;;;;;;;111.22;31.90;;;7.70;99.90;;;;;;5080719;28;20098;-78
2022/11/16 00:46:08;;;;;;;122.30;30.45;;;7.60;99.90;;;;;;5084114;28;20047;-78
2022/11/16 00:48:35;;;;;;;113.38;33.63;;;7.60;99.90;;;;;;5061028;28;20052;-79
2022/11/16 00:51:03;;;;;;;113.35;32.22;;;7.70;99.90;;;;;;5061550;28;20052;-79
2022/11/16 00:53:30;;;;;;;116.38;32.33;;;7.60;99.90;;;;;;5062116;28;20044;-78
2022/11/16 00:55:58;;;;;;;112.38;32.25;;;7.70;99.90;;;;;;5075527;28;20051;-79
2022/11/16 00:58:25;;;;;;;115.68;31.05;;;7.60;99.90;;;;;;5077310;28;20049;-79
2022/11/16 01:01:09;;;;;;;106.28;29.85;;;7.60;99.90;;;;;;5074782;28;20106;-79
2022/11/16 01:03:37;;;;;;;111.00;31.70;;;7.60;99.90;;;;;;5064180;28;20041;-78
2022/11/16 01:06:08;;;;;;;118.10;30.63;;;7.60;99.90;;;;;;5076214;28;20131;-79
2022/11/16 01:08:37;;;;;;;106.88;29.75;;;7.60;99.90;;;;;;5064032;28;20041;-79
2022/11/16 01:13:52;;;;;;;107.63;30.90;;;7.60;99.90;;;;;;5077495;28;20580;-79
2022/11/16 01:16:20;;;;;;;103.05;27.15;;;7.70;99.90;;;;;;5065767;28;20059;-79
2022/11/16 01:18:50;;;;;;;106.90;29.35;;;7.60;99.90;;;;;;5075152;28;20724;-78
2022/11/16 01:21:17;;;;;;;91.75;28.15;;;7.60;99.90;;;;;;5076379;28;20043;-79
2022/11/16 01:23:45;;;;;;;91.22;27.38;;;7.70;99.90;;;;;;5078626;28;20439;-79
2022/11/16 01:26:12;;;;;;;108.47;29.70;;;7.70;99.90;;;;;;5087384;28;21246;-79
2022/11/16 01:28:40;;;;;;;105.38;28.60;;;7.70;99.90;;;;;;5062580;28;20036;-79
2022/11/16 01:31:09;;;;;;;97.20;28.38;;;7.70;99.90;;;;;;5077917;28;20613;-79
2022/11/16 01:33:37;;;;;;;102.50;28.65;;;7.70;99.90;;;;;;5091241;28;20041;-79
2022/11/16 01:36:13;;;;;;;90.72;26.67;;;7.70;99.90;;;;;;5061847;28;20478;-79
2022/11/16 01:38:44;;;;;;;102.70;28.00;;;7.70;99.90;;;;;;5078322;28;20526;-79
2022/11/16 01:41:19;;;;;;;97.53;27.58;;;7.70;99.90;;;;;;5067886;28;20045;-79
2022/11/16 01:43:58;;;;;;;109.40;30.42;;;7.70;99.90;;;;;;5067468;28;20036;-79
2022/11/16 01:46:31;;;;;;;106.65;29.88;;;7.70;99.90;;;;;;5066259;28;20045;-79
2022/11/16 01:49:07;;;;;;;110.55;28.50;;;7.70;99.90;;;;;;5074309;28;20050;-79
2022/11/16 01:51:35;;;;;;;106.13;29.00;;;7.70;99.90;;;;;;5078678;28;20502;-79
2022/11/16 01:54:06;;;;;;;93.57;26.92;;;7.70;99.90;;;;;;5066055;28;20123;-79
2022/11/16 01:56:37;;;;;;;92.90;27.70;;;7.70;99.90;;;;;;5063989;28;20048;-79
2022/11/16 01:59:17;;;;;;;110.35;29.73;;;7.70;99.90;;;;;;5077949;28;20094;-79
2022/11/16 02:01:45;;;;;;;103.57;29.35;;;7.70;99.90;;;;;;5082901;28;20044;-79
2022/11/16 02:04:13;;;;;;;99.75;26.10;;;7.70;99.90;;;;;;5081259;28;20045;-79
2022/11/16 02:09:52;;;;;;;89.25;25.20;;;7.70;99.90;;;;;;5078616;28;20491;-79
2022/11/16 02:10:48;;;;;;;88.03;26.33;;;7.70;99.90;;;;;;5075484;28;20048;-79
2022/11/16 02:13:15;;;;;;;99.72;28.98;;;7.70;99.90;;;;;;5078376;28;20045;-79
2022/11/16 02:16:24;;;;;;;100.80;27.52;;;7.70;99.90;;;;;;5059126;28;20044;-79
2022/11/16 02:19:13;;;;;;;93.10;26.15;;;7.70;99.90;;;;;;5070415;28;20063;-79
2022/11/16 02:21:45;;;;;;;96.38;28.02;;;7.70;99.90;;;;;;5066596;28;20055;-79
2022/11/16 02:24:22;;;;;;;99.13;27.98;;;7.70;99.90;;;;;;5088807;28;20048;-79
2022/11/16 02:27:31;;;;;;;107.25;28.70;;;7.70;99.90;;;;;;5084289;28;20044;-79
2022/11/16 02:29:59;;;;;;;112.32;27.38;;;7.70;99.90;;;;;;5068562;28;20040;-79
2022/11/16 02:32:33;;;;;;;109.43;27.77;;;7.70;99.90;;;;;;5077293;28;20047;-79
2022/11/16 02:35:18;;;;;;;97.75;26.45;;;7.70;99.90;;;;;;5083408;28;20111;-79
2022/11/16 02:37:55;;;;;;;108.75;28.80;;;7.70;99.90;;;;;;5074894;28;20044;-79
2022/11/16 02:40:25;;;;;;;101.97;27.63;;;7.70;99.90;;;;;;5070953;28;20040;-79
2022/11/16 02:42:59;;;;;;;110.28;30.17;;;7.80;99.90;;;;;;5069952;28;20040;-79
2022/11/16 02:45:31;;;;;;;99.18;29.73;;;7.80;99.90;;;;;;5089053;28;20119;-79
2022/11/16 02:48:06;;;;;;;96.57;28.25;;;7.80;99.90;;;;;;5066640;28;20064;-79
2022/11/16 02:50:35;;;;;;;101.72;26.42;;;7.80;99.90;;;;;;5073856;28;20399;-79
2022/11/16 02:53:02;;;;;;;97.43;26.80;;;7.80;99.90;;;;;;5075165;28;20056;-79
2022/11/16 02:55:34;;;;;;;98.40;27.05;;;7.70;99.90;;;;;;5083459;28;20064;-79
2022/11/16 02:58:06;;;;;;;98.07;27.75;;;7.80;99.90;;;;;;5083244;28;20056;-79
2022/11/16 03:00:54;;;;;;;102.45;27.63;;;7.80;99.90;;;;;;5082480;28;20106;-79
2022/11/16 03:03:39;;;;;;;114.15;29.08;;;7.80;99.90;;;;;;5080229;28;20041;-79
2022/11/16 03:06:19;;;;;;;114.13;30.00;;;7.80;99.90;;;;;;5083678;28;20052;-79
2022/11/16 03:09:14;;;;;;;111.70;29.65;;;7.70;99.90;;;;;;5081870;28;23846;-79
2022/11/16 03:12:00;;;;;;;102.82;29.00;;;7.80;99.90;;;;;;5071192;28;20572;-79
2022/11/16 03:14:46;;;;;;;105.25;29.98;;;7.70;99.90;;;;;;5072785;28;20044;-79
2022/11/16 03:17:24;;;;;;;102.28;26.88;;;7.70;99.90;;;;;;5062248;28;20048;-79
2022/11/16 03:20:03;;;;;;;104.38;28.92;;;7.70;99.90;;;;;;5077539;28;20961;-79
2022/11/16 03:22:38;;;;;;;106.38;27.45;;;7.80;99.90;;;;;;5080462;28;20384;-79
2022/11/16 03:25:08;;;;;;;95.88;27.17;;;7.80;99.90;;;;;;5083556;28;20094;-79
2022/11/16 03:27:48;;;;;;;94.13;28.70;;;7.80;99.90;;;;;;5080935;28;20125;-79
2022/11/16 03:30:20;;;;;;;111.18;28.75;;;7.80;99.90;;;;;;5085295;28;20044;-79
2022/11/16 03:33:17;;;;;;;113.50;32.80;;;7.80;99.90;;;;;;5084050;28;20035;-79
2022/11/16 03:36:05;;;;;;;100.05;27.63;;;7.80;99.90;;;;;;5078788;28;20065;-79
2022/11/16 03:38:35;;;;;;;94.60;28.92;;;7.80;99.90;;;;;;5083912;28;20529;-79
2022/11/16 03:41:07;;;;;;;89.68;26.25;;;7.80;99.90;;;;;;5056175;28;20597;-79
2022/11/16 03:43:35;;;;;;;96.43;26.80;;;7.80;99.90;;;;;;5085377;28;22096;-79
2022/11/16 03:46:04;;;;;;;110.07;30.30;;;7.80;99.90;;;;;;5077728;28;20036;-79
2022/11/16 03:48:36;;;;;;;96.80;29.73;;;7.80;99.90;;;;;;5079442;28;20678;-79
2022/11/16 03:51:11;;;;;;;97.38;28.88;;;7.80;99.90;;;;;;5080456;28;20072;-79
2022/11/16 03:53:39;;;;;;;100.90;28.42;;;7.80;99.90;;;;;;5081393;28;20052;-79
2022/11/16 03:56:08;;;;;;;106.72;31.17;;;7.80;99.90;;;;;;5073055;28;20040;-79
2022/11/16 03:58:37;;;;;;;105.47;28.80;;;7.80;99.90;;;;;;5065146;28;20046;-79
2022/11/16 04:01:04;;;;;;;121.10;30.98;;;7.80;99.90;;;;;;5066829;28;20048;-79
2022/11/16 04:03:32;;;;;;;114.10;31.88;;;7.80;99.90;;;;;;5078023;28;20032;-79
2022/11/16 04:25:48;;;;;;;94.90;28.08;;;7.80;99.90;;;;;;5079505;28;20276;-79
2022/11/16 04:28:19;;;;;;;108.45;29.20;;;7.80;99.90;;;;;;5076524;28;20498;-79
2022/11/16 04:39:15;;;;;;;95.63;26.45;;;7.80;99.90;;;;;;5077294;28;20043;-79
2022/11/16 04:47:21;;;;;;;97.68;27.30;;;7.80;99.90;;;;;;5085424;28;20046;-79
2022/11/16 04:49:48;;;;;;;86.72;26.60;;;7.80;99.90;;;;;;5066325;28;20406;-79
2022/11/16 04:52:15;;;;;;;95.03;27.27;;;7.80;99.90;;;;;;5080854;28;20052;-79
2022/11/16 04:54:43;;;;;;;91.45;27.60;;;7.80;99.90;;;;;;5075855;28;20040;-79
2022/11/16 04:57:11;;;;;;;92.70;26.38;;;7.80;99.90;;;;;;5077644;28;20037;-79
2022/11/16 04:59:38;;;;;;;92.47;25.70;;;7.80;99.90;;;;;;5067773;28;20043;-79
2022/11/16 05:02:08;;;;;;;96.25;27.80;;;7.80;99.90;;;;;;5074350;28;20131;-79
2022/11/16 05:04:52;;;;;;;87.95;25.20;;;7.80;99.90;;;;;;5077752;28;20036;-79
2022/11/16 05:07:21;;;;;;;85.35;26.58;;;7.80;99.90;;;;;;5070793;28;20040;-79
2022/11/16 05:09:50;;;;;;;86.03;26.33;;;7.80;99.90;;;;;;5065144;28;20040;-79
2022/11/16 05:12:20;;;;;;;86.50;25.80;;;7.80;99.90;;;;;;5063880;28;20060;-79
2022/11/16 05:14:50;;;;;;;97.40;26.25;;;7.80;99.90;;;;;;5080699;28;20062;-79
2022/11/16 05:17:18;;;;;;;77.18;21.95;;;7.80;99.90;;;;;;5081380;28;20411;-79
2022/11/16 05:22:38;;;;;;;88.93;26.00;;;7.80;99.90;;;;;;5066725;28;20048;-79
2022/11/16 05:25:06;;;;;;;78.65;23.48;;;7.80;99.90;;;;;;5079715;28;20085;-79
2022/11/16 05:27:34;;;;;;;90.65;26.50;;;7.80;99.90;;;;;;5063796;28;20055;-79
2022/11/16 05:30:06;;;;;;;79.25;26.40;;;7.80;99.90;;;;;;5076619;28;20053;-79
2022/11/16 05:32:34;;;;;;;83.80;26.25;;;7.80;99.90;;;;;;5081188;28;20056;-79
2022/11/16 05:35:01;;;;;;;80.55;25.13;;;7.80;99.90;;;;;;5067095;28;20503;-79
2022/11/16 05:37:29;;;;;;;88.32;25.83;;;7.80;99.90;;;;;;5076673;28;20491;-78
2022/11/16 05:39:57;;;;;;;80.97;24.77;;;7.80;99.90;;;;;;5077919;28;20090;-78
2022/11/16 05:42:34;;;;;;;91.18;27.35;;;7.80;99.90;;;;;;5059260;28;20166;-79
2022/11/16 05:45:01;;;;;;;82.63;26.27;;;7.80;99.90;;;;;;5067880;28;20035;-79
2022/11/16 05:47:28;;;;;;;82.10;26.90;;;7.80;99.90;;;;;;5059493;28;20036;-79
2022/11/16 05:49:56;;;;;;;81.57;24.65;;;7.80;99.90;;;;;;5077270;28;20049;-79
2022/11/16 05:52:26;;;;;;;88.43;26.35;;;7.80;99.90;;;;;;5081157;28;20056;-79
2022/11/16 05:54:58;;;;;;;88.70;26.87;;;7.80;99.90;;;;;;5081629;28;20039;-79
2022/11/16 05:57:27;;;;;;;84.25;25.23;;;7.80;99.90;;;;;;5077656;28;20521;-79
2022/11/16 05:59:54;;;;;;;80.25;24.20;;;7.80;99.90;;;;;;5077523;28;20116;-79
2022/11/16 06:02:21;;;;;;;92.25;28.27;;;7.80;99.90;;;;;;5059457;28;20040;-79
2022/11/16 06:04:48;;;;;;;69.50;22.15;;;7.90;99.90;;;;;;5065581;28;20036;-79
2022/11/16 06:07:16;;;;;;;82.88;24.88;;;7.80;99.90;;;;;;5066641;28;20050;-79
2022/11/16 06:09:43;;;;;;;85.07;26.98;;;7.80;99.90;;;;;;5080403;28;20114;-79
2022/11/16 06:12:18;;;;;;;78.95;25.02;;;7.80;99.90;;;;;;5055066;28;20784;-79
2022/11/16 06:14:47;;;;;;;75.22;26.88;;;7.80;99.90;;;;;;5075015;28;20127;-79
2022/11/16 06:17:14;;;;;;;85.60;24.90;;;7.80;99.90;;;;;;5083605;28;20043;-79
2022/11/16 06:19:42;;;;;;;76.10;24.42;;;7.80;99.90;;;;;;5087342;28;20652;-79
2022/11/16 06:22:09;;;;;;;78.88;26.02;;;7.80;99.90;;;;;;5067045;28;20439;-79
2022/11/16 06:24:36;;;;;;;82.50;26.25;;;7.80;99.90;;;;;;5064472;28;20059;-79
2022/11/16 06:27:03;;;;;;;88.55;24.88;;;7.90;99.90;;;;;;5084250;28;20089;-79
2022/11/16 06:29:32;;;;;;;81.35;25.23;;;7.90;99.90;;;;;;5081586;28;20052;-79
2022/11/16 06:31:59;;;;;;;82.03;26.67;;;7.90;99.90;;;;;;5083389;28;20045;-79
2022/11/16 06:34:26;;;;;;;74.95;24.73;;;7.90;99.90;;;;;;5078418;28;20496;-79
2022/11/16 06:36:54;;;;;;;89.07;25.90;;;7.90;99.90;;;;;;5080804;28;20491;-79
2022/11/16 06:39:21;;;;;;;78.82;25.33;;;7.90;99.90;;;;;;5072030;28;20040;-79
2022/11/16 06:41:48;;;;;;;77.85;25.40;;;7.90;99.90;;;;;;5082763;28;20090;-79
2022/11/16 06:44:15;;;;;;;84.15;25.25;;;7.90;99.90;;;;;;5068564;28;20036;-79
2022/11/16 06:46:52;;;;;;;83.68;25.85;;;7.90;99.90;;;;;;5083396;28;20087;-79
2022/11/16 06:49:19;;;;;;;78.82;25.80;;;7.90;99.90;;;;;;5080399;28;20515;-79
2022/11/16 06:51:48;;;;;;;82.70;26.83;;;7.90;99.90;;;;;;5085780;28;20044;-79
2022/11/16 06:54:15;;;;;;;87.22;27.75;;;8.00;99.90;;;;;;5077798;28;20040;-79
2022/11/16 06:56:42;;;;;;;89.03;25.15;;;7.90;99.90;;;;;;5069776;28;20426;-79
2022/11/16 06:59:09;;;;;;;81.75;25.70;;;8.00;99.90;;;;;;5080420;28;20041;-79
2022/11/16 07:01:36;;;;;;;91.35;27.27;;;8.00;99.90;;;;;;5079017;28;20051;-80
2022/11/16 07:04:10;;;;;;;84.55;26.00;;;8.00;99.90;;;;;;5087952;28;20491;-80
2022/11/16 07:06:42;;;;;;;89.18;24.58;;;8.00;99.90;;;;;;5071768;28;20076;-80
2022/11/16 07:09:09;;;;;;;81.13;25.13;;;8.00;99.90;;;;;;5084903;28;20051;-80
2022/11/16 07:11:36;;;;;;;92.20;28.50;;;8.00;99.90;;;;;;5073749;28;20079;-79
2022/11/16 07:14:03;;;;;;;89.35;26.83;;;8.00;99.90;;;;;;5065477;28;20136;-80
2022/11/16 07:16:34;;;;;;;87.40;27.02;;;8.00;99.90;;;;;;5064726;28;20079;-80
2022/11/16 07:19:03;;;;;;;95.55;28.05;;;6.90;99.90;;;;;;5074192;28;20043;-80
2022/11/16 07:21:32;;;;;;;94.40;27.10;;;8.00;99.90;;;;;;5076700;28;20044;-80
2022/11/16 07:24:03;;;;;;;92.22;27.42;;;8.10;99.90;;;;;;5081724;28;20090;-80
2022/11/16 07:26:34;;;;;;;88.50;27.80;;;8.10;99.90;;;;;;5082470;28;20047;-80
2022/11/16 07:29:07;;;;;;;93.78;28.75;;;8.00;99.90;;;;;;5068624;28;20062;-80
2022/11/16 07:31:39;;;;;;;89.25;27.20;;;8.10;99.90;;;;;;5085936;28;20939;-80
2022/11/16 07:34:25;;;;;;;108.75;31.70;;;8.10;99.90;;;;;;5088888;28;20051;-80
2022/11/16 07:37:07;;;;;;;89.35;26.80;;;8.10;99.90;;;;;;5093598;28;20242;-80
2022/11/16 07:39:34;;;;;;;90.47;25.48;;;8.10;99.90;;;;;;5090420;28;20556;-80
2022/11/16 07:42:10;;;;;;;84.57;27.35;;;8.10;99.90;;;;;;5075283;28;20422;-80
2022/11/16 07:44:50;;;;;;;91.32;25.90;;;8.10;99.90;;;;;;5086212;28;20090;-80
2022/11/16 07:47:18;;;;;;;89.47;27.00;;;8.10;99.90;;;;;;5068695;28;20602;-80
2022/11/16 07:49:47;;;;;;;94.18;29.33;;;8.10;99.90;;;;;;5073090;28;20036;-80
2022/11/16 07:52:17;;;;;;;109.18;29.77;;;8.10;99.90;;;;;;5068536;28;20044;-80
2022/11/16 07:54:53;;;;;;;98.20;26.40;;;8.10;99.90;;;;;;5081912;28;20054;-80
2022/11/16 07:57:23;;;;;;;102.20;29.55;;;8.20;99.90;;;;;;5084512;28;20041;-80
2022/11/16 07:59:52;;;;;;;90.60;28.08;;;8.10;99.90;;;;;;5070397;28;20136;-80
2022/11/16 08:02:19;;;;;;;88.15;26.23;;;8.20;99.90;;;;;;5089308;28;20413;-80
2022/11/16 08:04:49;;;;;;;98.85;30.10;;;8.20;99.90;;;;;;5074607;28;20047;-80
2022/11/16 08:07:21;;;;;;;91.18;27.58;;;8.20;99.90;;;;;;5078746;28;20040;-80
2022/11/16 08:09:52;;;;;;;91.63;28.17;;;8.20;99.90;;;;;;5087676;28;20076;-80
2022/11/16 08:12:21;;;;;;;93.53;27.08;;;8.20;99.90;;;;;;5073402;28;20075;-80
2022/11/16 08:14:48;;;;;;;88.35;26.88;;;8.20;99.90;;;;;;5066195;28;20517;-80
2022/11/16 08:17:15;;;;;;;88.05;27.88;;;8.20;99.90;;;;;;5085886;28;20048;-80
2022/11/16 08:19:43;;;;;;;96.45;29.17;;;7.50;99.90;;;;;;5069255;28;20406;-80
2022/11/16 08:22:13;;;;;;;89.57;25.25;;;8.30;99.90;;;;;;5070076;28;20090;-80
2022/11/16 08:24:41;;;;;;;96.45;29.05;;;8.20;99.90;;;;;;5091717;28;20058;-80
2022/11/16 08:27:08;;;;;;;97.05;30.83;;;8.30;99.90;;;;;;5062337;28;20032;-80
2022/11/16 08:29:35;;;;;;;92.75;29.52;;;8.30;99.90;;;;;;5063220;28;20043;-80
2022/11/16 08:32:05;;;;;;;106.20;30.02;;;8.30;99.90;;;;;;5085145;28;20075;-80
2022/11/16 08:34:33;;;;;;;97.18;27.25;;;8.30;99.90;;;;;;5079960;28;20119;-80
2022/11/16 09:05:23;;;;;;;87.40;27.23;;;8.50;99.90;;;;;;5703805;24;20041;-79
2022/11/16 09:14:29;;;;;;;93.20;29.42;;;8.60;99.90;;;;;;5752566;24;20030;-78
2022/11/16 09:47:24;;;;;;;94.55;27.92;;;8.70;99.90;;;;;;5171261;24;20036;-78
2022/11/16 09:53:41;;;;;;;92.90;28.60;;;8.70;99.90;;;;;;5830178;24;20030;-77
2022/11/16 09:59:28;;;;;;;84.90;25.70;;;8.80;99.90;;;;;;4824815;24;20123;-78
2022/11/16 10:02:12;;;;;;;92.72;26.00;;;8.70;99.90;;;;;;4782046;29;20142;-78
2022/11/16 10:04:59;;;;;;;98.38;26.92;;;8.80;99.90;;;;;;4786928;30;20046;-78
2022/11/16 10:07:57;;;;;;;91.65;26.73;;;8.80;99.90;;;;;;5042615;24;20067;-78
2022/11/16 10:11:11;;;;;;;76.95;22.10;;;8.90;99.90;;;;;;5531827;24;20786;31
2022/11/16 10:21:18;;;;;;;96.18;26.40;;;8.90;99.90;;;;;;4886984;24;20048;-79
2022/11/16 10:24:22;;;;;;;91.78;26.35;;;8.90;99.90;;;;;;4784468;30;20036;-79
2022/11/16 10:27:33;;;;;;;90.60;25.15;;;9.40;99.90;;;;;;4763522;30;20063;-79
2022/11/16 10:30:11;;;;;;;84.53;25.65;;;7.60;99.90;;;;;;4749557;30;20090;-79
2022/11/16 10:32:50;;;;;;;107.63;29.27;;;8.90;99.90;;;;;;4742325;30;20082;-79
2022/11/16 10:35:23;;;;;;;93.93;26.85;;;9.00;99.90;;;;;;4744747;30;20052;-79
2022/11/16 10:37:51;;;;;;;100.47;29.27;;;9.00;99.90;;;;;;4761352;30;20179;-79
2022/11/16 10:40:28;;;;;;;95.65;27.13;;;9.00;99.90;;;;;;4740505;30;20914;-79
2022/11/16 10:43:17;;;;;;;98.40;28.52;;;9.00;99.90;;;;;;4739057;30;20124;-79
2022/11/16 10:45:58;;;;;;;101.03;28.88;;;9.00;99.90;;;;;;4751176;30;20124;-79
2022/11/16 10:48:36;;;;;;;106.38;31.52;;;9.00;99.90;;;;;;4757658;30;20140;-79
2022/11/16 10:51:04;;;;;;;96.97;28.23;;;9.00;99.90;;;;;;4744086;30;20052;-79
2022/11/16 10:53:36;;;;;;;97.97;29.40;;;9.00;99.90;;;;;;4722394;30;20780;-79
2022/11/16 10:56:30;;;;;;;102.45;27.88;;;8.90;99.90;;;;;;4742382;30;20044;-79
2022/11/16 10:59:03;;;;;;;96.40;27.67;;;9.10;99.90;;;;;;4790202;30;20052;-79
2022/11/16 11:01:30;;;;;;;;;;;9.20;99.90;;;;;;4754319;30;20760;-79
2022/11/16 11:04:16;;;;;;;92.28;23.55;;;8.80;99.90;;;;;;4750180;30;20004;-79
2022/11/16 11:06:45;;;;;;;100.25;26.65;;;8.70;99.90;;;;;;4736831;30;20056;-79
2022/11/16 11:09:21;;;;;;;93.30;25.70;;;9.10;99.90;;;;;;4746295;30;20052;-79
2022/11/16 11:15:06;;;;;;;104.10;30.08;;;9.00;99.90;;;;;;4755356;30;20622;-79
2022/11/16 11:17:35;;;;;;;92.90;29.55;;;9.10;99.90;;;;;;4741071;30;20525;-79
2022/11/16 11:20:18;;;;;;;84.63;25.55;;;8.70;99.90;;;;;;4748885;30;20066;-79
2022/11/16 11:22:58;;;;;;;108.13;33.92;;;9.10;99.90;;;;;;4738540;30;20059;-79
2022/11/16 11:25:35;;;;;;;100.45;28.15;;;9.20;99.90;;;;;;4734789;30;20067;-79
2022/11/16 11:28:24;;;;;;;108.60;29.15;;;9.20;99.90;;;;;;4750210;30;20056;-79
2022/11/16 11:30:55;;;;;;;98.55;26.77;;;9.10;99.90;;;;;;4738640;30;20768;-79
2022/11/16 11:33:24;;;;;;;91.38;26.45;;;9.10;99.90;;;;;;4773924;30;20560;-79
2022/11/16 11:36:03;;;;;;;106.57;28.15;;;9.10;99.90;;;;;;4771886;30;20064;-79
2022/11/16 11:38:33;;;;;;;109.85;29.80;;;9.60;99.90;;;;;;4791619;29;20046;-79
2022/11/16 11:41:04;;;;;;;106.95;29.30;;;9.10;99.90;;;;;;4778560;30;20500;-79
2022/11/16 11:43:32;;;;;;;108.13;29.65;;;9.10;99.90;;;;;;4768569;30;20506;-79
2022/11/16 11:46:11;;;;;;;97.47;26.45;;;9.10;99.90;;;;;;4765458;30;20074;-78
2022/11/16 11:48:55;;;;;;;95.45;27.20;;;9.10;99.90;;;;;;4763126;30;20050;-77
2022/11/16 11:51:39;;;;;;;97.70;27.35;;;9.10;99.90;;;;;;4763031;30;20044;-76
2022/11/16 11:54:13;;;;;;;90.20;27.05;;;9.10;99.90;;;;;;4768996;30;20071;-76
2022/11/16 11:56:41;;;;;;;99.68;28.55;;;9.10;99.90;;;;;;4760439;30;20132;-77
2022/11/16 11:59:18;;;;;;;90.13;27.30;;;9.10;99.90;;;;;;4783258;30;20040;-77
2022/11/16 12:02:15;;;;;;;90.32;25.60;;;9.20;99.90;;;;;;4763106;30;20058;-76
2022/11/16 12:04:58;;;;;;;74.20;23.33;;;9.10;99.90;;;;;;4774788;30;20059;-77
2022/11/16 12:08:01;;;;;;;87.40;27.48;;;8.90;99.90;;;;;;4754095;30;20146;-76
2022/11/16 12:10:52;;;;;;;84.43;24.57;;;8.60;99.90;;;;;;4747754;30;20036;-76
2022/11/16 12:13:42;;;;;;;92.63;27.30;;;9.10;99.90;;;;;;4760595;30;20052;-76
2022/11/16 12:16:18;;;;;;;89.68;25.20;;;8.90;99.90;;;;;;4768470;30;20077;-76
2022/11/16 12:19:31;;;;;;;84.55;24.60;;;9.20;99.90;;;;;;4763289;30;20075;-76
2022/11/16 12:22:26;;;;;;;79.72;24.42;;;9.20;99.90;;;;;;4760960;30;20146;-76
2022/11/16 12:25:25;;;;;;;94.22;27.27;;;9.20;99.90;;;;;;4751716;30;20054;-76
2022/11/16 12:28:27;;;;;;;87.65;27.77;;;9.10;99.90;;;;;;4714480;30;20058;-76
2022/11/16 12:31:14;;;;;;;80.10;24.27;;;9.20;99.90;;;;;;4775292;30;20515;-76
2022/11/16 12:34:00;;;;;;;88.82;27.48;;;9.20;99.90;;;;;;4744268;30;20060;-76
2022/11/16 12:36:45;;;;;;;77.38;26.98;;;9.20;99.90;;;;;;4759616;30;20106;-76
2022/11/16 12:39:32;;;;;;;93.50;26.35;;;9.20;99.90;;;;;;4768429;29;20058;-76
2022/11/16 12:42:33;;;;;;;90.43;29.80;;;9.20;99.90;;;;;;4768048;30;20056;-76
2022/11/16 12:45:30;;;;;;;77.68;26.30;;;9.20;99.90;;;;;;4772076;30;20079;-76
2022/11/16 12:48:10;;;;;;;81.05;26.42;;;9.20;99.90;;;;;;4764766;30;20058;-76
2022/11/16 12:50:55;;;;;;;84.78;24.40;;;9.20;99.90;;;;;;4774096;30;20052;-76
2022/11/16 12:53:41;;;;;;;80.80;26.75;;;9.20;99.90;;;;;;4772802;30;20075;-76
2022/11/16 12:56:17;;;;;;;86.68;28.48;;;9.20;99.90;;;;;;4779240;30;20059;-76
2022/11/16 12:59:01;;;;;;;107.72;38.60;;;9.20;99.90;;;;;;4761965;30;20056;-76
2022/11/16 13:01:36;;;;;;;99.22;30.20;;;9.20;99.90;;;;;;4780026;29;20074;-76
2022/11/16 13:04:10;;;;;;;104.03;36.80;;;9.20;99.90;;;;;;4764551;30;20504;-76
2022/11/16 13:06:44;;;;;;;134.32;54.08;;;9.20;99.90;;;;;;4749526;30;20492;-76
2022/11/16 13:09:22;;;;;;;226.68;118.63;;;9.10;99.90;;;;;;4779509;30;20043;-76
2022/11/16 13:11:59;;;;;;;131.10;57.88;;;9.20;99.90;;;;;;4777539;29;20044;-76
2022/11/16 13:14:36;;;;;;;91.18;36.92;;;9.20;99.90;;;;;;4775953;30;20064;-76
2022/11/16 13:17:06;;;;;;;94.10;37.90;;;9.20;99.90;;;;;;4783703;29;20051;-76
2022/11/16 13:19:38;;;;;;;82.90;27.25;;;9.20;99.90;;;;;;4763194;30;20665;-76
2022/11/16 13:22:20;;;;;;;82.20;27.85;;;9.10;99.90;;;;;;4773862;30;20059;-76
2022/11/16 13:24:57;;;;;;;76.72;28.52;;;9.10;99.90;;;;;;4776684;30;20067;-76
2022/11/16 13:27:42;;;;;;;69.72;24.20;;;8.60;99.90;;;;;;4770098;30;20429;-76
2022/11/16 13:30:18;;;;;;;76.30;27.08;;;9.10;99.90;;;;;;4767538;30;20155;-76
2022/11/16 13:33:07;;;;;;;70.95;27.67;;;9.10;99.90;;;;;;4783988;29;20088;-76
2022/11/16 13:35:37;;;;;;;70.15;25.65;;;9.40;99.90;;;;;;4773746;30;21081;-76
2022/11/16 13:38:14;;;;;;;87.05;30.20;;;9.10;99.90;;;;;;4764878;30;20052;-76
2022/11/16 13:40:42;;;;;;;81.03;30.55;;;9.10;99.90;;;;;;4774618;30;20039;-77
2022/11/16 13:43:09;;;;;;;96.72;34.22;;;9.20;99.90;;;;;;4774270;30;20067;-76
2022/11/16 13:45:41;;;;;;;164.90;72.50;;;9.10;99.90;;;;;;4774413;30;20070;-76
2022/11/16 13:48:19;;;;;;;180.57;71.90;;;9.10;99.90;;;;;;4781448;29;20063;-76
2022/11/16 13:50:55;;;;;;;83.85;30.90;;;9.70;99.90;;;;;;4767112;30;20089;-76
2022/11/16 13:53:37;;;;;;;83.03;25.77;;;9.20;99.90;;;;;;4756603;30;20146;-76
2022/11/16 13:56:25;;;;;;;75.45;29.17;;;8.90;99.90;;;;;;4778531;30;20075;-76
2022/11/16 13:58:57;;;;;;;74.95;28.55;;;9.10;99.90;;;;;;4768027;30;20051;-76
2022/11/16 14:01:25;;;;;;;71.93;27.33;;;9.10;99.90;;;;;;4776670;30;20083;-76
2022/11/16 14:04:31;;;;;;;85.50;31.67;;;9.10;99.90;;;;;;4759117;30;20097;-76
2022/11/16 14:06:59;;;;;;;74.95;27.95;;;9.10;99.90;;;;;;4752784;30;20060;-76
2022/11/16 14:09:45;;;;;;;81.90;30.25;;;9.00;99.90;;;;;;4777605;30;20063;-76
2022/11/16 14:12:38;;;;;;;66.25;26.00;;;9.10;99.90;;;;;;4777686;30;20493;-77
2022/11/16 14:15:19;;;;;;;72.22;27.92;;;10.20;99.90;;;;;;4780807;29;20059;-76
2022/11/16 14:17:56;;;;;;;67.30;24.60;;;9.00;99.90;;;;;;4767694;29;20072;-76
2022/11/16 14:20:33;;;;;;;65.28;23.58;;;9.10;99.90;;;;;;4771455;30;20068;-76
2022/11/16 14:23:15;;;;;;;68.25;26.25;;;9.10;99.90;;;;;;4771643;30;20052;-76
2022/11/16 14:26:16;;;;;;;83.32;33.00;;;9.10;99.90;;;;;;4752366;30;20059;-76
2022/11/16 14:28:58;;;;;;;92.25;36.85;;;9.20;99.90;;;;;;4777231;30;20047;-76
2022/11/16 14:31:45;;;;;;;82.38;31.98;;;9.00;99.90;;;;;;4780665;30;20086;-76
2022/11/16 14:34:19;;;;;;;70.95;27.45;;;9.10;99.90;;;;;;4785039;30;20341;-76
2022/11/16 14:36:48;;;;;;;96.95;40.42;;;9.10;99.90;;;;;;4789554;29;20067;-76
2022/11/16 14:39:42;;;;;;;85.93;31.83;;;9.10;99.90;;;;;;4770542;30;20055;-76
2022/11/16 14:42:32;;;;;;;168.45;67.35;;;7.80;99.90;;;;;;4765795;30;20063;-76
2022/11/16 14:45:29;;;;;;;109.70;44.05;;;8.10;99.90;;;;;;4786674;30;20070;-76
2022/11/16 14:48:04;;;;;;;101.70;41.60;;;8.10;99.90;;;;;;4781444;30;20048;-76
2022/11/16 14:50:33;;;;;;;85.72;37.75;;;9.00;99.90;;;;;;4788526;29;20488;-76
2022/11/16 14:53:28;;;;;;;88.78;37.10;;;9.00;99.90;;;;;;5258633;24;20040;31
2022/11/16 14:56:08;;;;;;;76.88;31.38;;;9.00;99.90;;;;;;4781279;30;20050;-77
2022/11/16 14:58:36;;;;;;;68.40;31.35;;;8.90;99.90;;;;;;4787842;29;20062;-76
2022/11/16 15:01:11;;;;;;;70.75;27.88;;;8.80;99.90;;;;;;4761874;30;20116;-77
2022/11/16 15:21:49;;;;;;;70.65;27.17;;;9.00;99.90;;;;;;5876217;24;20098;31
2022/11/16 15:24:31;;;;;;;69.32;27.50;;;9.00;99.90;;;;;;4787668;29;20155;-78
2022/11/16 15:27:09;;;;;;;73.68;32.45;;;9.00;99.90;;;;;;4780312;30;20126;-78
2022/11/16 15:29:37;;;;;;;73.30;30.30;;;9.00;99.90;;;;;;4798025;29;20040;-78
2022/11/16 15:32:06;;;;;;;64.05;26.63;;;9.00;99.90;;;;;;4778519;30;20081;-78
2022/11/16 15:34:33;;;;;;;70.40;30.08;;;9.00;99.90;;;;;;4788249;30;20043;-78
2022/11/16 15:37:00;;;;;;;60.42;27.83;;;9.00;99.90;;;;;;4800757;29;20099;-78